Time;durP1;ratioP1;P1;durP2;ratioP2;P2;SDS_P1;SDS_P2;PMS_P1;PMS_P2;Temp;Humidity;BMP_temperature;BMP_pressure;BME280_temperature;BME280_humidity;BME280_pressure;Samples;Min_cycle;Max_cycle;Signal;HPM_P1;HPM_P2
2021/03/23 00:00:19;;;;;;;19.00;9.87;;;7.00;93.10;;;;;;4922809;29;20620;-86
2021/03/23 00:02:51;;;;;;;18.80;10.27;;;6.90;93.10;;;;;;4924565;29;20469;-87
2021/03/23 00:05:18;;;;;;;12.10;9.13;;;6.80;93.30;;;;;;4921907;29;20459;-87
2021/03/23 00:07:45;;;;;;;14.83;10.97;;;6.90;93.20;;;;;;4919651;29;20502;-87
2021/03/23 00:10:13;;;;;;;13.13;9.70;;;7.00;93.20;;;;;;4918491;29;20486;-87
2021/03/23 00:12:40;;;;;;;13.63;10.10;;;7.00;93.10;;;;;;4917224;29;20491;-87
2021/03/23 00:15:09;;;;;;;13.50;9.50;;;7.00;93.00;;;;;;4919390;29;20550;-86
2021/03/23 00:17:36;;;;;;;17.53;10.10;;;7.00;93.00;;;;;;4918843;29;20455;-86
2021/03/23 00:20:05;;;;;;;14.93;10.60;;;7.00;92.90;;;;;;4924754;29;20482;-86
2021/03/23 00:22:34;;;;;;;17.90;10.90;;;7.00;93.00;;;;;;4924888;29;20463;-86
2021/03/23 00:25:00;;;;;;;20.53;10.50;;;7.00;92.90;;;;;;4937008;29;20920;-85
2021/03/23 00:27:27;;;;;;;12.20;10.33;;;7.00;92.90;;;;;;4936538;29;20450;-86
2021/03/23 00:29:53;;;;;;;21.03;10.80;;;7.00;92.90;;;;;;4942248;29;20575;-85
2021/03/23 00:32:20;;;;;;;15.50;10.20;;;7.00;93.00;;;;;;4933523;29;20473;-85
2021/03/23 00:34:46;;;;;;;14.50;9.67;;;7.00;92.90;;;;;;4921478;29;20454;-86
2021/03/23 00:37:13;;;;;;;13.40;10.17;;;7.10;93.00;;;;;;4919960;29;20494;-86
2021/03/23 00:39:39;;;;;;;14.13;10.50;;;7.00;93.10;;;;;;4915480;29;20531;-86
2021/03/23 00:42:07;;;;;;;11.80;9.57;;;7.00;93.20;;;;;;4902987;29;20455;-86
2021/03/23 00:44:35;;;;;;;15.07;10.33;;;7.00;93.20;;;;;;4900440;29;20514;-86
2021/03/23 00:47:02;;;;;;;14.83;8.90;;;7.00;93.20;;;;;;4901302;29;20475;-86
2021/03/23 00:49:28;;;;;;;11.50;9.30;;;7.10;93.20;;;;;;4899506;29;20475;-85
2021/03/23 00:51:55;;;;;;;15.03;10.27;;;7.00;93.30;;;;;;4900500;29;20538;-85
2021/03/23 00:54:21;;;;;;;11.50;8.50;;;7.00;93.20;;;;;;4920964;29;20440;-85
2021/03/23 00:56:48;;;;;;;14.17;10.20;;;7.00;93.40;;;;;;4911313;29;20489;-85
2021/03/23 00:59:14;;;;;;;16.73;10.40;;;7.00;93.30;;;;;;4900461;29;20475;-86
2021/03/23 01:01:41;;;;;;;16.23;10.83;;;7.00;93.40;;;;;;4901568;29;20953;-86
2021/03/23 01:04:07;;;;;;;16.60;10.50;;;7.00;93.40;;;;;;4902458;29;21009;-85
2021/03/23 01:06:34;;;;;;;16.30;11.13;;;6.90;93.40;;;;;;4907825;29;20448;-85
2021/03/23 01:09:00;;;;;;;11.90;9.20;;;6.90;93.60;;;;;;4918664;29;20482;-86
2021/03/23 01:11:26;;;;;;;14.17;10.90;;;6.90;93.60;;;;;;4904068;29;20447;-85
2021/03/23 01:13:53;;;;;;;14.30;10.47;;;6.90;93.60;;;;;;4902204;29;20459;-87
2021/03/23 01:16:19;;;;;;;15.17;11.50;;;6.90;93.50;;;;;;4902369;29;20491;-86
2021/03/23 01:18:46;;;;;;;16.77;10.70;;;6.90;93.60;;;;;;4918941;29;20466;-86
2021/03/23 01:21:12;;;;;;;17.23;10.53;;;6.90;93.70;;;;;;4922713;29;20428;-85
2021/03/23 01:23:39;;;;;;;14.50;9.90;;;6.90;93.70;;;;;;4922179;29;20453;-86
2021/03/23 01:26:05;;;;;;;13.80;11.30;;;6.90;93.70;;;;;;4924577;29;20501;-85
2021/03/23 01:28:31;;;;;;;17.67;11.63;;;6.90;93.70;;;;;;4935446;29;20481;-85
2021/03/23 01:30:58;;;;;;;15.40;10.43;;;6.90;93.70;;;;;;4930862;29;20478;-85
2021/03/23 01:33:24;;;;;;;16.63;11.00;;;7.00;93.80;;;;;;4940280;29;20656;-86
2021/03/23 01:35:52;;;;;;;14.20;11.00;;;7.00;93.70;;;;;;4940664;29;20474;-85
2021/03/23 01:38:18;;;;;;;15.50;10.60;;;7.00;93.80;;;;;;4940560;29;20510;-86
2021/03/23 01:40:45;;;;;;;24.47;12.23;;;7.00;93.90;;;;;;4930118;29;20455;-86
2021/03/23 01:43:21;;;;;;;13.03;10.67;;;7.00;93.90;;;;;;4918558;29;20458;-88
2021/03/23 01:45:48;;;;;;;16.47;11.13;;;7.00;94.00;;;;;;4923664;29;20455;-85
2021/03/23 01:48:19;;;;;;;17.07;11.60;;;7.00;94.10;;;;;;4922135;29;20451;-85
2021/03/23 01:50:48;;;;;;;16.40;11.03;;;6.90;94.20;;;;;;4922460;29;20435;-86
2021/03/23 01:53:22;;;;;;;16.20;11.30;;;6.90;94.30;;;;;;4926628;29;20546;-85
2021/03/23 01:55:49;;;;;;;21.27;12.53;;;6.90;94.40;;;;;;4920659;29;20509;-86
2021/03/23 01:58:16;;;;;;;20.00;13.10;;;6.90;94.50;;;;;;4901916;29;20530;-85
2021/03/23 02:00:46;;;;;;;17.07;12.63;;;6.90;94.50;;;;;;4902315;29;20459;-86
2021/03/23 02:03:13;;;;;;;22.20;13.70;;;6.90;94.70;;;;;;4901812;29;20451;-85
2021/03/23 02:05:39;;;;;;;20.67;13.67;;;6.90;94.70;;;;;;4905477;29;20440;-85
2021/03/23 02:08:06;;;;;;;25.30;15.47;;;6.90;94.80;;;;;;4904342;29;20825;-85
2021/03/23 02:10:34;;;;;;;23.37;15.30;;;6.90;94.80;;;;;;4902681;29;20575;-86
2021/03/23 02:13:03;;;;;;;19.87;14.73;;;6.80;95.00;;;;;;4911834;29;20963;-86
2021/03/23 02:15:30;;;;;;;25.23;14.83;;;6.80;95.10;;;;;;4906965;29;20511;-85
2021/03/23 02:18:17;;;;;;;22.77;14.10;;;6.80;95.10;;;;;;4901901;29;20537;-86
2021/03/23 02:21:01;;;;;;;23.77;15.07;;;6.80;95.10;;;;;;4902068;29;20491;-85
2021/03/23 02:23:30;;;;;;;28.47;15.97;;;6.80;95.10;;;;;;4919175;29;20442;-85
2021/03/23 02:25:56;;;;;;;26.83;18.97;;;6.80;95.30;;;;;;4920595;29;20446;-85
2021/03/23 02:28:23;;;;;;;27.47;19.73;;;6.90;95.30;;;;;;4922641;29;20458;-86
2021/03/23 02:30:52;;;;;;;28.23;18.40;;;6.90;95.30;;;;;;4923648;29;21050;-86
2021/03/23 02:33:19;;;;;;;25.10;16.90;;;6.80;95.40;;;;;;4916309;29;20447;-86
2021/03/23 02:35:45;;;;;;;31.60;18.60;;;6.80;95.40;;;;;;4906656;29;20578;-86
2021/03/23 02:38:12;;;;;;;34.97;19.40;;;6.80;95.60;;;;;;4904017;29;21005;-86
2021/03/23 02:40:40;;;;;;;30.87;19.00;;;6.80;95.60;;;;;;4920239;29;20443;-86
2021/03/23 02:43:06;;;;;;;24.30;16.60;;;6.80;95.60;;;;;;4920467;29;20509;-86
2021/03/23 02:45:33;;;;;;;23.53;18.17;;;6.80;95.60;;;;;;4921829;29;20462;-85
2021/03/23 02:47:59;;;;;;;29.10;18.87;;;6.80;95.60;;;;;;4922261;29;20450;-86
2021/03/23 02:50:25;;;;;;;28.60;17.67;;;6.80;95.70;;;;;;4920254;29;20462;-86
2021/03/23 02:52:51;;;;;;;28.90;19.80;;;6.70;95.70;;;;;;4911878;29;21052;-87
2021/03/23 02:55:19;;;;;;;28.13;19.10;;;6.70;96.00;;;;;;4903245;29;20471;-86
2021/03/23 02:57:46;;;;;;;25.83;18.50;;;6.70;96.00;;;;;;4905662;29;20547;-86
2021/03/23 03:00:16;;;;;;;27.80;19.33;;;6.70;96.00;;;;;;4914264;29;20467;-85
2021/03/23 03:02:42;;;;;;;34.80;19.33;;;6.80;95.90;;;;;;4922281;29;20466;-86
2021/03/23 03:05:11;;;;;;;32.03;19.60;;;6.80;95.90;;;;;;4920174;29;20466;-86
2021/03/23 03:07:37;;;;;;;27.90;19.80;;;6.80;96.00;;;;;;4917108;29;20443;-86
2021/03/23 03:10:05;;;;;;;26.77;19.00;;;6.80;95.70;;;;;;4913951;29;20490;-86
2021/03/23 03:12:32;;;;;;;31.83;17.70;;;6.80;95.80;;;;;;4901629;29;20972;-86
2021/03/23 03:14:58;;;;;;;31.90;18.67;;;6.80;95.90;;;;;;4905675;29;21281;-86
2021/03/23 03:17:24;;;;;;;28.77;17.83;;;6.80;95.90;;;;;;4900410;29;20518;-86
2021/03/23 03:19:51;;;;;;;28.00;19.53;;;6.80;95.80;;;;;;4901437;29;20475;-85
2021/03/23 03:22:17;;;;;;;32.53;20.03;;;6.80;95.80;;;;;;4901044;29;20444;-86
2021/03/23 03:24:43;;;;;;;28.80;19.30;;;6.80;95.80;;;;;;4906206;29;20443;-86
2021/03/23 03:27:09;;;;;;;29.90;20.40;;;6.80;95.80;;;;;;4918930;29;20455;-86
2021/03/23 03:29:36;;;;;;;28.10;18.33;;;6.70;95.80;;;;;;4919240;29;21062;-85
2021/03/23 03:32:03;;;;;;;28.60;19.13;;;6.70;96.00;;;;;;4919854;29;20450;-86
2021/03/23 03:34:29;;;;;;;32.47;19.70;;;6.70;96.20;;;;;;4919321;29;20455;-86
2021/03/23 03:36:56;;;;;;;33.37;19.23;;;6.70;96.30;;;;;;4918735;29;20487;-86
2021/03/23 03:39:22;;;;;;;29.53;21.80;;;6.70;96.30;;;;;;4908496;29;20832;-86
2021/03/23 03:41:48;;;;;;;30.27;18.63;;;6.70;96.30;;;;;;4906948;29;20467;-86
2021/03/23 03:44:15;;;;;;;33.13;19.73;;;6.70;96.10;;;;;;4921740;29;20436;-86
2021/03/23 03:46:42;;;;;;;31.40;20.37;;;6.70;96.20;;;;;;4911111;29;20473;-86
2021/03/23 03:49:08;;;;;;;29.37;20.77;;;6.70;96.30;;;;;;4901304;29;20480;-86
2021/03/23 03:51:34;;;;;;;27.63;18.70;;;6.70;96.40;;;;;;4900305;29;20452;-86
2021/03/23 03:54:00;;;;;;;28.67;19.43;;;6.70;96.40;;;;;;4900119;29;20539;-87
2021/03/23 03:56:27;;;;;;;33.83;19.73;;;6.70;96.50;;;;;;4899651;29;20491;-86
2021/03/23 03:58:53;;;;;;;28.50;18.23;;;6.70;96.50;;;;;;4899969;29;20479;-86
2021/03/23 04:01:19;;;;;;;29.77;19.20;;;6.70;96.40;;;;;;4899763;29;20564;-86
2021/03/23 04:03:46;;;;;;;33.23;21.27;;;6.70;96.50;;;;;;4899548;29;20465;-86
2021/03/23 04:06:12;;;;;;;30.87;21.13;;;6.70;96.50;;;;;;4899682;29;20463;-86
2021/03/23 04:08:39;;;;;;;27.80;19.20;;;6.70;96.50;;;;;;4900170;29;20551;-87
2021/03/23 04:11:08;;;;;;;29.27;20.77;;;6.70;96.50;;;;;;4900820;29;20463;-85
2021/03/23 04:13:34;;;;;;;31.53;19.67;;;6.70;96.50;;;;;;4899079;29;20467;-86
2021/03/23 04:16:01;;;;;;;27.40;19.17;;;6.60;96.70;;;;;;4899924;29;20471;-86
2021/03/23 04:18:28;;;;;;;34.70;20.50;;;6.70;96.60;;;;;;4899895;29;20475;-85
2021/03/23 04:20:58;;;;;;;24.03;17.43;;;6.70;96.30;;;;;;4902958;29;20486;-86
2021/03/23 04:23:27;;;;;;;26.47;19.10;;;6.80;96.20;;;;;;4901055;29;20491;-86
2021/03/23 04:25:56;;;;;;;28.03;18.80;;;6.80;96.10;;;;;;4905794;29;20466;-85
2021/03/23 04:28:22;;;;;;;31.73;20.37;;;6.80;96.10;;;;;;4903068;29;20450;-85
2021/03/23 04:30:49;;;;;;;28.80;19.73;;;6.80;96.10;;;;;;4900891;29;20448;-86
2021/03/23 04:33:17;;;;;;;35.30;20.57;;;6.80;95.90;;;;;;4900514;29;20972;-86
2021/03/23 04:35:46;;;;;;;28.03;20.13;;;6.70;95.80;;;;;;4920064;29;20458;-86
2021/03/23 04:38:16;;;;;;;31.30;19.97;;;6.80;96.00;;;;;;4920824;29;20436;-87
2021/03/23 04:40:42;;;;;;;24.67;17.73;;;6.80;96.00;;;;;;4906831;29;20455;-86
2021/03/23 04:43:10;;;;;;;32.27;18.70;;;6.80;95.90;;;;;;4900183;29;20455;-87
2021/03/23 04:45:37;;;;;;;31.87;19.37;;;6.90;95.90;;;;;;4898987;29;20666;-86
2021/03/23 04:48:03;;;;;;;31.60;18.97;;;6.80;95.90;;;;;;4899233;29;20475;-86
2021/03/23 04:50:29;;;;;;;28.60;18.17;;;6.80;95.80;;;;;;4899473;29;20451;-86
2021/03/23 04:52:56;;;;;;;31.10;21.23;;;6.80;95.70;;;;;;4917543;29;20457;-86
2021/03/23 04:55:23;;;;;;;27.30;17.47;;;6.80;95.70;;;;;;4920952;29;20459;-86
2021/03/23 04:57:49;;;;;;;27.80;17.57;;;6.80;95.80;;;;;;4920516;29;20915;-86
2021/03/23 05:00:16;;;;;;;28.57;20.10;;;6.80;95.80;;;;;;4920892;29;20475;-86
2021/03/23 05:02:43;;;;;;;30.03;19.27;;;6.80;95.80;;;;;;4923053;29;20459;-86
2021/03/23 05:05:10;;;;;;;31.57;20.37;;;6.80;95.90;;;;;;4918761;29;20451;-86
2021/03/23 05:07:37;;;;;;;31.07;20.30;;;6.80;95.80;;;;;;4907732;29;20466;-87
2021/03/23 05:10:05;;;;;;;30.90;21.40;;;6.80;95.90;;;;;;4901348;29;20546;-86
2021/03/23 05:12:32;;;;;;;32.90;19.93;;;6.80;96.00;;;;;;4921162;29;20462;-85
2021/03/23 05:14:58;;;;;;;28.87;19.93;;;6.80;95.90;;;;;;4913719;29;20459;-86
2021/03/23 05:17:24;;;;;;;30.23;20.27;;;6.80;95.90;;;;;;4900713;29;20864;-86
2021/03/23 05:19:51;;;;;;;29.33;18.43;;;6.80;95.90;;;;;;4898805;29;20472;-86
2021/03/23 05:22:17;;;;;;;27.03;18.90;;;6.80;95.90;;;;;;4899103;29;20487;-86
2021/03/23 05:24:44;;;;;;;36.30;20.47;;;6.80;95.80;;;;;;4897362;29;20462;-86
2021/03/23 05:27:10;;;;;;;26.60;20.40;;;6.80;95.80;;;;;;4897958;29;20443;-86
2021/03/23 05:29:38;;;;;;;27.30;20.17;;;6.80;95.80;;;;;;4899134;29;20558;-86
2021/03/23 05:32:05;;;;;;;28.47;19.63;;;6.80;95.80;;;;;;4899446;29;20460;-85
2021/03/23 05:34:31;;;;;;;25.33;18.83;;;6.80;95.90;;;;;;4906519;29;20443;-85
2021/03/23 05:36:57;;;;;;;26.10;19.00;;;6.80;95.90;;;;;;4918818;29;20494;-86
2021/03/23 05:39:23;;;;;;;36.17;21.80;;;6.80;95.90;;;;;;4918954;29;20478;-86
2021/03/23 05:42:00;;;;;;;29.60;20.10;;;6.80;95.90;;;;;;4920204;29;20492;-86
2021/03/23 05:44:49;;;;;;;30.40;19.80;;;6.80;95.70;;;;;;4910002;29;20482;-85
2021/03/23 05:47:19;;;;;;;34.97;22.03;;;6.80;95.90;;;;;;4901540;29;20452;-84
2021/03/23 05:49:51;;;;;;;33.70;20.43;;;6.80;95.90;;;;;;4898469;29;20475;-85
2021/03/23 05:52:23;;;;;;;29.17;19.23;;;6.80;95.90;;;;;;4908658;29;20942;-86
2021/03/23 05:54:58;;;;;;;32.63;20.40;;;6.80;95.80;;;;;;4917517;29;20872;-86
2021/03/23 05:57:31;;;;;;;34.27;24.53;;;6.80;95.80;;;;;;4916922;29;20987;-86
2021/03/23 06:00:02;;;;;;;33.77;20.73;;;6.90;95.80;;;;;;4918104;29;20474;-85
2021/03/23 06:02:37;;;;;;;29.50;19.60;;;6.90;95.80;;;;;;4917019;29;20438;-85
2021/03/23 06:05:30;;;;;;;32.87;19.67;;;7.00;95.70;;;;;;4917749;29;20455;-86
2021/03/23 06:08:00;;;;;;;32.80;20.30;;;7.00;95.70;;;;;;4911019;29;20444;-85
2021/03/23 06:10:26;;;;;;;33.43;21.63;;;7.00;95.80;;;;;;4898308;29;20510;-86
2021/03/23 06:13:02;;;;;;;32.90;21.00;;;7.00;95.80;;;;;;4898207;29;20971;-86
2021/03/23 06:15:34;;;;;;;29.83;18.90;;;7.00;95.80;;;;;;4916986;29;20453;-86
2021/03/23 06:18:05;;;;;;;28.33;19.50;;;7.10;95.80;;;;;;4916782;29;20487;-86
2021/03/23 06:20:41;;;;;;;31.27;19.63;;;7.10;95.70;;;;;;4902783;29;20455;-86
2021/03/23 06:23:33;;;;;;;41.80;21.30;;;7.10;95.60;;;;;;4902059;29;20462;-86
2021/03/23 06:26:07;;;;;;;30.23;19.93;;;7.20;95.90;;;;;;4909552;29;20884;-86
2021/03/23 06:28:54;;;;;;;30.73;19.70;;;7.20;95.60;;;;;;4917778;29;20474;-86
2021/03/23 06:31:46;;;;;;;29.80;20.30;;;7.30;95.30;;;;;;4919346;29;20587;-86
2021/03/23 06:34:16;;;;;;;37.23;22.40;;;7.30;95.20;;;;;;4923323;29;20462;-86
2021/03/23 06:36:43;;;;;;;36.40;22.70;;;7.30;95.10;;;;;;4939935;29;20522;-86
2021/03/23 06:39:10;;;;;;;30.73;20.43;;;7.30;95.20;;;;;;4919642;29;20471;-86
2021/03/23 06:41:49;;;;;;;34.40;21.80;;;7.40;95.30;;;;;;4902739;29;20455;-86
2021/03/23 06:44:26;;;;;;;32.13;21.20;;;7.40;95.10;;;;;;4902471;29;20459;-87
2021/03/23 06:46:54;;;;;;;32.20;21.40;;;7.50;94.90;;;;;;4902059;29;20519;-86
2021/03/23 06:49:27;;;;;;;29.13;20.83;;;7.50;94.90;;;;;;4906053;29;20485;-87
2021/03/23 06:52:21;;;;;;;31.67;21.37;;;7.50;94.70;;;;;;4922058;29;20553;-87
2021/03/23 06:55:20;;;;;;;32.17;22.20;;;7.60;94.70;;;;;;4921300;29;20455;-87
2021/03/23 06:57:47;;;;;;;36.07;22.47;;;7.60;94.70;;;;;;4920892;29;20478;-86
2021/03/23 07:00:25;;;;;;;35.90;22.00;;;7.50;94.60;;;;;;4931963;29;20482;-86
2021/03/23 07:02:55;;;;;;;31.67;21.70;;;7.50;94.90;;;;;;4929569;29;20475;-87
2021/03/23 07:05:32;;;;;;;39.17;23.93;;;7.60;94.80;;;;;;4904105;29;20451;-87
2021/03/23 07:08:21;;;;;;;35.30;21.20;;;7.60;94.60;;;;;;4915790;29;20509;-87
2021/03/23 07:11:07;;;;;;;32.93;23.17;;;7.80;94.60;;;;;;4932476;29;21147;-89
2021/03/23 07:13:38;;;;;;;31.30;21.10;;;7.90;94.20;;;;;;4927326;29;20498;-87
2021/03/23 07:16:15;;;;;;;39.33;21.83;;;8.00;94.00;;;;;;4929592;29;20881;-87
2021/03/23 07:18:47;;;;;;;33.83;22.30;;;8.10;93.80;;;;;;4946883;29;20514;-87
2021/03/23 07:21:31;;;;;;;31.00;21.27;;;8.10;93.80;;;;;;4947134;29;20474;-87
2021/03/23 07:24:05;;;;;;;34.20;21.27;;;8.20;93.80;;;;;;4942186;29;20458;-86
2021/03/23 07:26:34;;;;;;;32.90;22.63;;;8.20;93.50;;;;;;4942503;29;20427;-86
2021/03/23 07:29:26;;;;;;;33.73;21.67;;;8.30;93.40;;;;;;4952775;28;20465;-80
2021/03/23 07:32:09;;;;;;;34.70;22.20;;;8.30;93.40;;;;;;4959066;28;20442;-81
2021/03/23 07:35:00;;;;;;;34.27;23.07;;;8.30;93.30;;;;;;4910128;29;20467;-80
2021/03/23 07:37:40;;;;;;;37.27;23.47;;;8.30;93.20;;;;;;4909027;29;20498;-81
2021/03/23 07:40:14;;;;;;;35.37;22.40;;;8.40;93.00;;;;;;4919718;29;20447;-81
2021/03/23 07:42:45;;;;;;;30.60;21.93;;;8.50;93.00;;;;;;4915082;29;20454;-81
2021/03/23 07:45:22;;;;;;;39.03;22.93;;;8.50;93.00;;;;;;4910346;29;20452;-81
2021/03/23 07:47:55;;;;;;;38.17;22.67;;;8.50;92.80;;;;;;4928263;29;20908;-82
2021/03/23 07:50:26;;;;;;;33.33;23.50;;;8.50;92.70;;;;;;4927841;29;20466;-82
2021/03/23 07:52:57;;;;;;;31.83;20.73;;;8.60;92.70;;;;;;4929458;29;20458;-82
2021/03/23 07:55:26;;;;;;;34.53;22.80;;;8.50;92.60;;;;;;4928930;29;20459;-87
2021/03/23 07:58:27;;;;;;;33.43;22.10;;;8.50;92.90;;;;;;4930054;29;20509;-83
2021/03/23 08:01:27;;;;;;;34.03;23.00;;;8.70;92.80;;;;;;4930302;29;20457;-83
2021/03/23 08:04:12;;;;;;;31.70;22.43;;;8.90;92.50;;;;;;4913208;29;20464;-84
2021/03/23 08:06:55;;;;;;;33.67;22.37;;;9.10;92.00;;;;;;4920855;29;20483;-85
2021/03/23 08:09:53;;;;;;;30.87;21.10;;;9.10;91.70;;;;;;4916224;29;20471;-84
2021/03/23 08:12:52;;;;;;;35.90;24.77;;;9.00;91.60;;;;;;4914427;29;20459;-84
2021/03/23 08:15:37;;;;;;;34.17;21.57;;;9.00;91.80;;;;;;4915329;29;20458;-84
2021/03/23 08:18:25;;;;;;;37.07;22.77;;;9.10;91.70;;;;;;4911842;29;20522;-84
2021/03/23 08:21:28;;;;;;;35.03;23.40;;;9.30;91.40;;;;;;4931721;29;20517;-85
2021/03/23 08:24:18;;;;;;;41.90;23.50;;;9.40;91.20;;;;;;4929518;29;20525;-84
2021/03/23 08:27:25;;;;;;;34.40;20.70;;;9.50;91.10;;;;;;4910873;29;20482;-85
2021/03/23 08:30:06;;;;;;;35.97;22.97;;;9.70;90.90;;;;;;4926270;29;20489;-83
2021/03/23 08:32:40;;;;;;;34.20;24.60;;;9.90;90.30;;;;;;4931998;29;20458;-83
2021/03/23 08:35:31;;;;;;;33.30;22.80;;;9.90;90.10;;;;;;4935979;29;20441;-83
2021/03/23 08:38:11;;;;;;;33.17;21.53;;;10.20;88.80;;;;;;4932095;29;20510;-83
2021/03/23 08:40:58;;;;;;;30.97;21.23;;;10.10;87.50;;;;;;4923061;29;20673;-84
2021/03/23 08:43:32;;;;;;;34.67;21.07;;;10.20;87.50;;;;;;4909908;29;20462;-84
2021/03/23 08:46:01;;;;;;;31.50;21.03;;;10.30;87.50;;;;;;4910256;29;20488;-84
2021/03/23 08:48:42;;;;;;;33.30;20.57;;;10.50;87.10;;;;;;4915659;29;20471;-84
2021/03/23 08:51:11;;;;;;;31.10;21.93;;;10.70;86.40;;;;;;4912499;29;20460;-84
2021/03/23 08:53:50;;;;;;;30.60;22.10;;;10.80;85.90;;;;;;4928883;29;20439;-83
2021/03/23 08:56:56;;;;;;;32.60;23.17;;;10.80;85.50;;;;;;4933251;29;20458;-82
2021/03/23 08:59:59;;;;;;;31.13;20.07;;;10.90;85.60;;;;;;4928199;29;20470;-83
2021/03/23 09:02:50;;;;;;;27.87;20.23;;;10.90;84.10;;;;;;4921665;29;20531;-84
2021/03/23 09:05:55;;;;;;;31.67;21.03;;;10.80;84.80;;;;;;4951450;29;20452;-84
2021/03/23 09:08:43;;;;;;;31.63;21.70;;;10.90;84.50;;;;;;4938611;29;20510;-83
2021/03/23 09:11:35;;;;;;;31.17;20.50;;;10.90;84.50;;;;;;4931970;29;20444;-83
2021/03/23 09:14:27;;;;;;;30.40;21.17;;;10.80;85.00;;;;;;4942526;29;20456;-83
2021/03/23 09:17:15;;;;;;;38.00;21.70;;;10.90;84.30;;;;;;4949662;29;20485;-84
2021/03/23 09:19:59;;;;;;;27.93;18.57;;;10.90;84.10;;;;;;4949439;29;20478;-84
2021/03/23 09:22:37;;;;;;;33.57;21.97;;;10.80;83.90;;;;;;4940828;29;20475;-82
2021/03/23 09:25:49;;;;;;;33.43;21.03;;;10.80;84.00;;;;;;4914829;29;20443;-84
2021/03/23 09:28:46;;;;;;;31.30;20.67;;;10.80;84.00;;;;;;4911684;29;20455;-84
2021/03/23 09:31:22;;;;;;;33.23;22.77;;;10.70;84.30;;;;;;4911878;29;20503;-84
2021/03/23 09:33:51;;;;;;;41.43;22.20;;;10.50;84.20;;;;;;4913404;29;20453;-84
2021/03/23 09:36:45;;;;;;;31.20;20.80;;;10.60;84.90;;;;;;4912081;29;20482;-85
2021/03/23 09:39:46;;;;;;;35.80;19.97;;;11.10;84.20;;;;;;4915896;29;20506;-84
2021/03/23 09:42:31;;;;;;;27.00;18.60;;;11.50;82.80;;;;;;4932389;29;20975;-85
2021/03/23 09:45:16;;;;;;;31.80;19.67;;;11.80;81.30;;;;;;4927598;29;20450;-83
2021/03/23 09:47:59;;;;;;;28.27;18.40;;;12.10;79.40;;;;;;4928421;29;20589;-84
2021/03/23 09:50:32;;;;;;;26.43;17.77;;;12.20;78.40;;;;;;4928087;29;20475;-84
2021/03/23 09:53:09;;;;;;;19.50;15.90;;;12.60;77.10;;;;;;4929236;29;20506;-84
2021/03/23 09:55:38;;;;;;;25.20;17.40;;;12.70;74.80;;;;;;4912033;29;20459;-83
2021/03/23 09:58:04;;;;;;;24.90;16.47;;;13.10;74.50;;;;;;4898483;29;20479;-84
2021/03/23 10:00:33;;;;;;;21.07;16.00;;;13.50;72.40;;;;;;4899635;29;20448;-85
2021/03/23 10:03:01;;;;;;;15.90;12.90;;;13.90;70.20;;;;;;4904974;29;20479;-82
2021/03/23 10:05:30;;;;;;;13.53;12.20;;;14.10;67.70;;;;;;4904670;29;20456;-84
2021/03/23 10:08:12;;;;;;;15.33;11.87;;;14.40;65.80;;;;;;4907891;29;20544;-84
2021/03/23 10:10:38;;;;;;;15.63;12.63;;;14.50;64.60;;;;;;4952302;23;20446;-86
2021/03/23 10:13:20;;;;;;;16.13;13.07;;;14.70;63.70;;;;;;4971948;28;20470;-87
2021/03/23 10:15:47;;;;;;;15.77;12.40;;;14.60;63.20;;;;;;4970975;29;20438;-87
2021/03/23 10:18:20;;;;;;;18.20;13.13;;;14.40;62.30;;;;;;4962317;28;20442;-87
2021/03/23 10:20:54;;;;;;;15.40;12.33;;;13.80;63.10;;;;;;4958643;29;20465;-87
2021/03/23 10:23:22;;;;;;;15.80;12.67;;;13.20;64.80;;;;;;4941866;29;20931;-87
2021/03/23 10:25:48;;;;;;;15.60;13.17;;;12.90;65.80;;;;;;4935271;29;20446;-87
2021/03/23 10:28:25;;;;;;;16.23;13.13;;;12.60;67.10;;;;;;4924005;29;20489;-87
2021/03/23 10:30:58;;;;;;;16.50;12.50;;;12.40;67.70;;;;;;4924453;29;20466;-87
2021/03/23 10:33:28;;;;;;;27.67;12.67;;;12.40;68.10;;;;;;4929263;29;20465;-87
2021/03/23 10:35:57;;;;;;;13.20;10.77;;;12.40;67.50;;;;;;4922929;29;21057;-86
2021/03/23 10:38:37;;;;;;;16.00;11.30;;;12.30;67.80;;;;;;4929080;29;20451;-87
2021/03/23 10:41:25;;;;;;;14.23;11.20;;;12.20;68.30;;;;;;4929577;29;20894;-87
2021/03/23 10:43:53;;;;;;;16.50;11.27;;;12.10;68.30;;;;;;4924396;29;20462;-86
2021/03/23 10:46:28;;;;;;;11.40;9.10;;;12.00;68.10;;;;;;4923350;29;20450;-86
2021/03/23 10:49:12;;;;;;;11.87;9.10;;;11.90;67.50;;;;;;4923124;29;20964;-87
2021/03/23 10:51:40;;;;;;;12.20;9.73;;;11.80;67.30;;;;;;4922927;29;20885;-86
2021/03/23 10:54:19;;;;;;;14.80;10.23;;;11.60;67.10;;;;;;4937071;29;20462;-86
2021/03/23 10:56:47;;;;;;;12.07;10.33;;;11.40;67.50;;;;;;4941157;29;20453;-88
2021/03/23 10:59:15;;;;;;;13.50;9.13;;;11.30;67.80;;;;;;4941762;29;20456;-86
2021/03/23 11:01:57;;;;;;;14.87;9.03;;;11.20;68.10;;;;;;4940782;29;20470;-88
2021/03/23 11:04:25;;;;;;;11.03;8.13;;;11.00;67.80;;;;;;4940460;29;20445;-87
2021/03/23 11:06:52;;;;;;;9.90;7.63;;;11.00;67.40;;;;;;4939833;29;20481;-88
2021/03/23 11:09:19;;;;;;;11.73;8.40;;;11.00;67.20;;;;;;4940199;29;20461;-87
2021/03/23 11:11:47;;;;;;;10.27;8.50;;;11.10;67.10;;;;;;4940864;29;20840;-88
2021/03/23 11:14:13;;;;;;;12.70;8.70;;;11.20;67.20;;;;;;4941948;29;20974;-87
2021/03/23 11:16:42;;;;;;;10.40;7.60;;;11.40;66.80;;;;;;4936180;29;20456;-87
2021/03/23 11:19:19;;;;;;;12.10;8.30;;;11.60;66.00;;;;;;4942649;29;20454;-86
2021/03/23 11:21:47;;;;;;;12.70;8.20;;;11.60;64.90;;;;;;4952293;29;20489;-85
2021/03/23 11:24:13;;;;;;;8.80;6.97;;;11.80;64.00;;;;;;4958730;29;20533;-86
2021/03/23 11:26:43;;;;;;;10.00;8.30;;;11.80;63.30;;;;;;4953621;29;20478;-86
2021/03/23 11:29:13;;;;;;;19.20;9.63;;;11.70;63.90;;;;;;4948937;29;20940;-87
2021/03/23 11:31:40;;;;;;;26.17;11.23;;;11.70;64.40;;;;;;4943058;29;20482;-87
2021/03/23 11:34:06;;;;;;;14.00;9.70;;;11.70;64.50;;;;;;4943126;29;20812;-87
2021/03/23 11:36:33;;;;;;;10.03;8.77;;;11.90;64.40;;;;;;4947785;29;20452;-86
2021/03/23 11:39:00;;;;;;;14.87;10.90;;;12.00;63.80;;;;;;4928058;29;20451;-88
2021/03/23 11:41:34;;;;;;;13.63;9.50;;;12.10;64.30;;;;;;4936011;29;20864;-88
2021/03/23 11:44:03;;;;;;;11.30;9.20;;;12.40;64.20;;;;;;4942494;29;20951;-87
2021/03/23 11:46:36;;;;;;;13.37;10.17;;;12.40;63.00;;;;;;4946355;29;20450;-87
2021/03/23 11:49:07;;;;;;;9.60;8.50;;;12.40;62.30;;;;;;4939536;29;20490;-87
2021/03/23 11:51:35;;;;;;;11.03;7.93;;;12.30;61.80;;;;;;4940457;29;20558;-87
2021/03/23 11:54:03;;;;;;;11.17;8.80;;;12.30;62.00;;;;;;4950572;29;20451;-87
2021/03/23 11:56:30;;;;;;;10.30;8.80;;;12.20;61.80;;;;;;4950293;29;20844;-87
2021/03/23 11:58:56;;;;;;;13.53;8.83;;;12.10;62.00;;;;;;4944056;29;20454;-87
2021/03/23 12:01:25;;;;;;;11.40;8.70;;;12.00;62.80;;;;;;4943789;29;20470;-86
2021/03/23 12:03:52;;;;;;;10.50;9.40;;;12.00;63.10;;;;;;4940918;29;20458;-86
2021/03/23 12:06:25;;;;;;;11.50;8.80;;;11.80;63.70;;;;;;4940171;29;20478;-86
2021/03/23 12:08:58;;;;;;;12.90;9.73;;;11.70;64.10;;;;;;4940559;29;20487;-86
2021/03/23 12:11:32;;;;;;;16.40;9.00;;;11.70;64.80;;;;;;4943950;29;20478;-87
2021/03/23 12:14:12;;;;;;;15.10;10.27;;;11.70;65.40;;;;;;4942234;29;20458;-88
2021/03/23 12:16:46;;;;;;;12.17;10.30;;;11.80;65.30;;;;;;4925940;29;20450;-86
2021/03/23 12:19:15;;;;;;;13.63;8.73;;;12.00;64.90;;;;;;4943000;29;20458;-87
2021/03/23 12:21:41;;;;;;;12.20;9.63;;;12.30;64.20;;;;;;4946016;29;20486;-87
2021/03/23 12:24:09;;;;;;;11.27;9.20;;;12.50;62.80;;;;;;4946348;29;20449;-87
2021/03/23 12:26:37;;;;;;;9.33;8.33;;;12.70;62.60;;;;;;4947984;29;20454;-86
2021/03/23 12:29:03;;;;;;;11.23;8.90;;;12.70;61.40;;;;;;4942344;29;20466;-85
2021/03/23 12:31:30;;;;;;;11.47;9.43;;;12.50;61.60;;;;;;4943513;29;20478;-87
2021/03/23 12:33:57;;;;;;;11.50;9.90;;;12.50;62.00;;;;;;4941614;29;20987;-87
2021/03/23 12:36:23;;;;;;;13.60;9.67;;;12.20;62.30;;;;;;4948095;29;20458;-88
2021/03/23 12:38:51;;;;;;;11.13;9.93;;;12.20;63.60;;;;;;4948657;29;20588;-86
2021/03/23 12:41:28;;;;;;;12.70;10.90;;;12.30;63.70;;;;;;4935873;29;20479;-87
2021/03/23 12:43:55;;;;;;;12.33;9.23;;;12.20;63.30;;;;;;4925643;29;20437;-86
2021/03/23 12:46:22;;;;;;;13.70;10.00;;;12.20;63.00;;;;;;4925765;29;20441;-86
2021/03/23 12:48:48;;;;;;;11.00;9.80;;;12.20;63.00;;;;;;4926066;29;20460;-86
2021/03/23 12:51:22;;;;;;;13.40;9.43;;;12.20;63.00;;;;;;4940615;29;20478;-88
2021/03/23 12:53:49;;;;;;;12.27;9.43;;;12.10;63.70;;;;;;4938003;29;20458;-87
2021/03/23 12:56:15;;;;;;;12.63;9.67;;;12.10;63.50;;;;;;4948784;29;20450;-87
2021/03/23 12:58:45;;;;;;;9.50;8.20;;;12.20;63.50;;;;;;4944329;29;20453;-87
2021/03/23 13:01:12;;;;;;;10.33;9.23;;;12.20;62.90;;;;;;4951740;29;20469;-86